Time;durP1;ratioP1;P1;durP2;ratioP2;P2;SDS_P1;SDS_P2;PMS_P1;PMS_P2;Temp;Humidity;BMP_temperature;BMP_pressure;BME280_temperature;BME280_humidity;BME280_pressure;Samples;Min_cycle;Max_cycle;Signal;HPM_P1;HPM_P2
2023/09/03 00:01:00;;;;;;;22.42;13.82;;;14.60;99.90;;;;;;5096686;28;19999;-63
2023/09/03 00:03:25;;;;;;;21.67;13.13;;;14.60;99.90;;;;;;5099391;28;20077;-63
2023/09/03 00:05:53;;;;;;;;;;;14.60;99.90;;;;;;5089932;28;20079;-60
2023/09/03 00:08:21;;;;;;;28.75;12.57;;;14.60;99.90;;;;;;5092307;28;19951;-63
2023/09/03 00:10:54;;;;;;;24.83;14.23;;;14.60;99.90;;;;;;5090584;28;20040;-62
2023/09/03 00:13:20;;;;;;;24.70;14.15;;;14.60;99.90;;;;;;5098660;28;20039;-63
2023/09/03 00:15:46;;;;;;;;;;;14.60;99.90;;;;;;5088475;27;20040;-63
2023/09/03 00:18:12;;;;;;;27.63;14.77;;;14.60;99.90;;;;;;5077620;28;19966;-63
2023/09/03 00:20:38;;;;;;;;;;;14.60;99.90;;;;;;5085171;28;20039;-61
2023/09/03 00:23:04;;;;;;;30.00;15.82;;;14.50;99.90;;;;;;5079397;28;20802;-61
2023/09/03 00:25:36;;;;;;;25.23;14.73;;;14.50;99.90;;;;;;5078926;28;20119;-61
2023/09/03 00:28:03;;;;;;;30.25;15.40;;;14.50;99.90;;;;;;5083037;28;20112;-62
2023/09/03 00:30:28;;;;;;;37.53;17.30;;;14.50;99.90;;;;;;5084140;28;20043;-62
2023/09/03 00:32:54;;;;;;;;;;;14.50;99.90;;;;;;5077319;28;20097;-62
2023/09/03 00:35:20;;;;;;;27.95;15.85;;;14.60;99.90;;;;;;5086536;28;19916;-62
2023/09/03 00:37:46;;;;;;;45.15;17.23;;;14.50;99.90;;;;;;5081631;28;20040;-61
2023/09/03 00:40:12;;;;;;;;;;;14.50;99.90;;;;;;5075851;28;20124;-62
2023/09/03 00:42:37;;;;;;;29.48;15.55;;;14.50;99.90;;;;;;5085225;28;20673;-62
2023/09/03 00:45:03;;;;;;;31.90;14.70;;;14.40;99.90;;;;;;5080173;28;20040;-64
2023/09/03 00:47:29;;;;;;;;;;;14.50;99.90;;;;;;5076527;28;20063;-63
2023/09/03 00:49:55;;;;;;;29.17;16.33;;;14.40;99.90;;;;;;5083789;28;19924;-63
2023/09/03 00:52:23;;;;;;;28.80;15.77;;;14.40;99.90;;;;;;5080095;28;20412;-63
2023/09/03 00:54:50;;;;;;;27.75;14.90;;;14.30;99.90;;;;;;5074337;28;20041;-64
2023/09/03 00:57:15;;;;;;;30.63;15.88;;;14.30;99.90;;;;;;5085623;28;20044;-63
2023/09/03 00:59:42;;;;;;;;;;;14.30;99.90;;;;;;5078134;28;20041;-63
2023/09/03 01:02:13;;;;;;;38.88;17.08;;;14.30;99.90;;;;;;5066512;28;19931;-63
2023/09/03 01:04:39;;;;;;;28.90;13.73;;;14.20;99.90;;;;;;5091520;28;20048;-63
2023/09/03 01:07:06;;;;;;;22.83;13.50;;;14.30;99.90;;;;;;5071156;28;20048;-63
2023/09/03 01:09:32;;;;;;;26.33;13.80;;;14.20;99.90;;;;;;5082163;28;20050;-62
2023/09/03 01:12:07;;;;;;;;;;;14.20;99.90;;;;;;5081386;28;20032;-62
2023/09/03 01:14:50;;;;;;;22.30;13.55;;;14.30;99.90;;;;;;5080625;28;20509;-60
2023/09/03 01:17:54;;;;;;;30.15;15.38;;;14.20;99.90;;;;;;5065341;28;20489;-62
2023/09/03 01:20:31;;;;;;;31.33;14.55;;;14.10;99.90;;;;;;5082666;28;20627;-61
2023/09/03 01:23:03;;;;;;;29.73;14.45;;;14.20;99.90;;;;;;5084040;28;20126;-62
2023/09/03 01:25:41;;;;;;;34.90;17.42;;;14.20;99.90;;;;;;5087158;28;20187;-62
2023/09/03 01:28:24;;;;;;;35.10;16.55;;;14.20;99.90;;;;;;5072160;28;20054;-63
2023/09/03 01:30:55;;;;;;;25.48;15.23;;;14.20;99.90;;;;;;5074089;28;20111;-62
2023/09/03 01:33:21;;;;;;;27.58;15.77;;;14.20;99.90;;;;;;5089971;28;20040;-63
2023/09/03 01:35:48;;;;;;;34.40;16.85;;;14.20;99.90;;;;;;5072457;28;20547;-62
2023/09/03 01:38:15;;;;;;;32.05;16.08;;;14.20;99.90;;;;;;5078151;28;20385;-62
2023/09/03 01:40:40;;;;;;;40.05;17.63;;;14.20;99.90;;;;;;5083606;28;20072;-62
2023/09/03 01:43:06;;;;;;;;;;;14.20;99.90;;;;;;5088228;28;20032;-62
2023/09/03 01:45:43;;;;;;;32.05;15.90;;;14.20;99.90;;;;;;5077991;28;19928;-61
2023/09/03 01:48:23;;;;;;;28.88;15.98;;;14.10;99.90;;;;;;5084227;28;20635;-61
2023/09/03 01:51:11;;;;;;;31.23;15.70;;;14.10;99.90;;;;;;5101670;28;20059;-64
2023/09/03 01:53:48;;;;;;;30.83;16.75;;;14.10;99.90;;;;;;5075700;28;20043;-63
2023/09/03 01:56:15;;;;;;;31.25;16.80;;;14.20;99.90;;;;;;5073271;28;20118;-63
2023/09/03 01:58:44;;;;;;;29.35;16.38;;;14.20;99.90;;;;;;5084398;28;20039;-63
2023/09/03 02:01:11;;;;;;;33.13;15.65;;;14.20;99.90;;;;;;5082817;28;20039;-62
2023/09/03 02:03:37;;;;;;;29.27;16.10;;;14.20;99.90;;;;;;5085694;28;20105;-63
2023/09/03 02:06:05;;;;;;;36.40;16.52;;;14.20;99.90;;;;;;5075180;28;20048;-64
2023/09/03 02:08:31;;;;;;;27.60;14.77;;;14.20;99.90;;;;;;5070956;28;20579;-63
2023/09/03 02:10:56;;;;;;;;;;;14.30;99.90;;;;;;5081348;28;20103;-64
2023/09/03 02:13:22;;;;;;;28.73;15.57;;;14.30;99.90;;;;;;5079905;28;19924;-62
2023/09/03 02:15:47;;;;;;;32.03;17.02;;;14.30;99.90;;;;;;5083274;28;20380;-63
2023/09/03 02:18:13;;;;;;;;;;;14.30;99.90;;;;;;5082914;28;20229;-63
2023/09/03 02:20:38;;;;;;;32.13;17.70;;;14.30;99.90;;;;;;5087668;28;20326;-62
2023/09/03 02:23:04;;;;;;;;;;;14.40;99.90;;;;;;5067153;28;20041;-62
2023/09/03 02:25:29;;;;;;;40.28;18.25;;;14.40;99.90;;;;;;5083554;28;19912;-61
2023/09/03 02:27:55;;;;;;;30.90;17.88;;;14.40;99.90;;;;;;5073109;28;20043;-63
2023/09/03 02:30:21;;;;;;;30.98;18.13;;;14.50;99.90;;;;;;5069994;28;20075;-60
2023/09/03 02:32:46;;;;;;;32.42;18.42;;;14.50;99.90;;;;;;5063759;28;20040;-62
2023/09/03 02:35:12;;;;;;;;;;;14.60;99.90;;;;;;5083705;28;20231;-63
2023/09/03 02:37:37;;;;;;;27.55;16.83;;;14.60;99.90;;;;;;5078556;28;20011;-62
2023/09/03 02:40:03;;;;;;;31.77;17.75;;;14.70;99.90;;;;;;5079514;28;20589;-62
2023/09/03 02:42:29;;;;;;;32.40;17.30;;;14.60;99.90;;;;;;5066977;28;20047;-61
2023/09/03 02:44:54;;;;;;;;;;;14.60;99.90;;;;;;5078724;28;20039;-61
2023/09/03 02:47:20;;;;;;;28.85;17.35;;;14.60;99.90;;;;;;5071999;28;19935;-62
2023/09/03 02:49:45;;;;;;;;;;;14.70;99.90;;;;;;5074227;28;20063;-63
2023/09/03 02:52:11;;;;;;;32.40;20.60;;;14.70;99.90;;;;;;5074426;28;19920;-63
2023/09/03 02:54:36;;;;;;;;;;;14.70;99.90;;;;;;5075658;28;20442;-61
2023/09/03 02:57:02;;;;;;;32.78;17.27;;;14.70;99.90;;;;;;5082357;28;20379;-62
2023/09/03 02:59:29;;;;;;;28.20;16.95;;;14.70;99.90;;;;;;5066763;28;20044;-62
2023/09/03 03:01:54;;;;;;;42.83;21.33;;;14.70;99.90;;;;;;5066608;28;20039;-63
2023/09/03 03:04:20;;;;;;;;;;;14.70;99.90;;;;;;5066182;28;20032;-61
2023/09/03 03:06:46;;;;;;;30.80;18.75;;;14.80;99.90;;;;;;5064905;28;19931;-62
2023/09/03 03:09:11;;;;;;;;;;;14.80;99.90;;;;;;5073018;28;20058;-61
2023/09/03 03:11:37;;;;;;;41.85;21.77;;;14.80;99.90;;;;;;5070109;28;19951;-62
2023/09/03 03:14:03;;;;;;;;;;;14.80;99.90;;;;;;5063366;28;20062;-60
2023/09/03 03:16:29;;;;;;;34.70;20.13;;;14.80;99.90;;;;;;5071306;28;19927;-63
2023/09/03 03:18:56;;;;;;;46.65;24.63;;;14.80;99.90;;;;;;5071791;28;20451;-62
2023/09/03 03:21:22;;;;;;;39.60;22.77;;;14.90;99.90;;;;;;5072242;28;20075;-62
2023/09/03 03:23:52;;;;;;;43.75;25.27;;;14.90;99.90;;;;;;5081892;28;20048;-63
2023/09/03 03:26:19;;;;;;;43.55;23.80;;;14.90;99.90;;;;;;5079881;28;20381;-62
2023/09/03 03:28:45;;;;;;;35.75;21.98;;;14.90;99.90;;;;;;5071424;28;20417;-63
2023/09/03 03:31:15;;;;;;;37.83;20.83;;;14.90;99.90;;;;;;5068357;28;20115;-62
2023/09/03 03:33:42;;;;;;;41.42;24.45;;;14.90;99.90;;;;;;5070952;28;20369;-62
2023/09/03 03:36:16;;;;;;;47.00;26.05;;;15.00;99.90;;;;;;5079586;28;20067;-61
2023/09/03 03:38:42;;;;;;;41.03;24.08;;;14.90;99.90;;;;;;5065099;28;20036;-61
2023/09/03 03:41:15;;;;;;;41.28;22.48;;;14.90;99.90;;;;;;5077469;28;20403;-61
2023/09/03 03:43:44;;;;;;;39.17;22.52;;;14.90;99.90;;;;;;5068978;28;20029;-62
2023/09/03 03:46:13;;;;;;;37.95;21.48;;;14.90;99.90;;;;;;5080807;28;20040;-63
2023/09/03 03:48:38;;;;;;;35.22;21.98;;;14.90;99.90;;;;;;5081254;28;20039;-62
2023/09/03 03:51:04;;;;;;;;;;;14.90;99.90;;;;;;5080851;28;20531;-64
2023/09/03 03:53:30;;;;;;;36.88;21.70;;;14.90;99.90;;;;;;5081920;28;19920;-63
2023/09/03 03:55:59;;;;;;;;;;;14.90;99.90;;;;;;5078066;28;20108;-63
2023/09/03 03:58:27;;;;;;;40.42;23.77;;;15.00;99.90;;;;;;5079295;28;19911;-63
2023/09/03 04:00:53;;;;;;;39.40;22.77;;;15.00;99.90;;;;;;5081584;28;20036;-64
2023/09/03 04:03:18;;;;;;;;;;;15.00;99.90;;;;;;5087710;28;20028;-63
2023/09/03 04:05:43;;;;;;;42.92;23.85;;;14.90;99.90;;;;;;5082336;28;20057;-61
2023/09/03 04:08:09;;;;;;;38.15;23.52;;;14.90;99.90;;;;;;5071455;28;20678;-62
2023/09/03 04:10:34;;;;;;;;;;;14.90;99.90;;;;;;5087392;28;20031;-61
2023/09/03 04:13:00;;;;;;;39.58;22.85;;;14.90;99.90;;;;;;5078069;28;19916;-63
2023/09/03 04:15:26;;;;;;;;;;;14.90;99.90;;;;;;5085903;28;20024;-62
2023/09/03 04:17:51;;;;;;;40.85;19.85;;;14.90;99.90;;;;;;5080406;28;19935;-62
2023/09/03 04:20:17;;;;;;;;;;;14.80;99.90;;;;;;5080647;28;20101;-61
2023/09/03 04:22:42;;;;;;;44.67;25.23;;;14.70;99.90;;;;;;5081546;28;19920;-61
2023/09/03 04:25:08;;;;;;;;;;;14.60;99.90;;;;;;5082323;28;20489;-62
2023/09/03 04:27:33;;;;;;;32.92;19.52;;;14.60;99.90;;;;;;5079747;28;19943;-63
2023/09/03 04:29:59;;;;;;;35.20;19.98;;;14.60;99.90;;;;;;5077472;28;20036;-62
2023/09/03 04:32:25;;;;;;;;;;;14.60;99.90;;;;;;5071134;28;20045;-61
2023/09/03 04:34:51;;;;;;;34.78;18.33;;;14.50;99.90;;;;;;5075558;28;20011;-62
2023/09/03 04:37:17;;;;;;;;;;;14.50;99.90;;;;;;5085016;28;20536;-62
2023/09/03 04:39:42;;;;;;;30.15;17.65;;;14.50;99.90;;;;;;5081752;28;19916;-61
2023/09/03 04:42:08;;;;;;;;;;;14.50;99.90;;;;;;5081654;28;20047;-62
2023/09/03 04:44:37;;;;;;;34.45;18.52;;;14.50;99.90;;;;;;5076770;28;19974;-62
2023/09/03 04:47:05;;;;;;;31.35;19.73;;;14.50;99.90;;;;;;5085179;28;20134;-62
2023/09/03 04:49:31;;;;;;;31.38;20.10;;;14.40;99.90;;;;;;5082225;28;20040;-61
2023/09/03 04:51:57;;;;;;;32.80;19.60;;;14.40;99.90;;;;;;5076306;28;20040;-62
2023/09/03 04:54:22;;;;;;;;;;;14.50;99.90;;;;;;5093012;28;20054;-62
2023/09/03 04:56:48;;;;;;;32.88;18.42;;;14.50;99.90;;;;;;5084772;28;19920;-62
2023/09/03 04:59:14;;;;;;;;;;;14.50;99.90;;;;;;5077133;28;20039;-62
2023/09/03 05:01:41;;;;;;;34.33;18.95;;;14.50;99.90;;;;;;5081640;28;20371;-62
2023/09/03 05:04:06;;;;;;;35.20;19.27;;;14.50;99.90;;;;;;5076233;28;20050;-62
2023/09/03 05:06:32;;;;;;;;;;;14.50;99.90;;;;;;5083192;28;20071;-62
2023/09/03 05:08:57;;;;;;;36.33;19.08;;;14.40;99.90;;;;;;5070553;28;19967;-62
2023/09/03 05:11:23;;;;;;;44.45;21.85;;;14.40;99.90;;;;;;5075845;28;20422;-62
2023/09/03 05:13:48;;;;;;;;;;;14.40;99.90;;;;;;5068894;28;20060;-62
2023/09/03 05:16:14;;;;;;;33.75;16.73;;;14.40;99.90;;;;;;5073837;28;19913;-62
2023/09/03 05:18:39;;;;;;;36.38;18.20;;;14.40;99.90;;;;;;5072677;28;20032;-62
2023/09/03 05:21:09;;;;;;;;;;;14.40;99.90;;;;;;5072822;28;20098;-62
2023/09/03 05:23:35;;;;;;;28.27;15.38;;;14.40;99.90;;;;;;5065981;28;19916;-62
2023/09/03 05:26:00;;;;;;;33.83;17.10;;;14.30;99.90;;;;;;5069971;28;20089;-62
2023/09/03 05:28:26;;;;;;;;;;;14.30;99.90;;;;;;5074765;28;20040;-61
2023/09/03 05:30:52;;;;;;;27.13;15.25;;;14.40;99.90;;;;;;5070751;28;19920;-62
2023/09/03 05:33:17;;;;;;;32.17;17.08;;;14.40;99.90;;;;;;5087512;28;20051;-62
2023/09/03 05:35:43;;;;;;;;;;;14.30;99.90;;;;;;5081246;28;20048;-62
2023/09/03 05:38:08;;;;;;;29.30;16.35;;;14.40;99.90;;;;;;5064690;28;19920;-62
2023/09/03 05:40:34;;;;;;;;;;;14.40;99.90;;;;;;5073441;28;20047;-62
2023/09/03 05:42:59;;;;;;;27.30;14.40;;;14.40;99.90;;;;;;5078215;28;19916;-62
2023/09/03 05:45:25;;;;;;;;;;;14.50;99.90;;;;;;5068378;28;20519;-62
2023/09/03 05:47:50;;;;;;;31.60;17.05;;;14.60;99.90;;;;;;5077768;28;20034;-61
2023/09/03 05:50:16;;;;;;;;;;;14.60;99.90;;;;;;5076536;28;20037;-62
2023/09/03 05:52:42;;;;;;;27.95;15.45;;;14.60;99.90;;;;;;5083376;28;19920;-61
2023/09/03 05:55:09;;;;;;;29.30;16.23;;;14.60;99.90;;;;;;5081932;28;20035;-62
2023/09/03 05:57:35;;;;;;;29.63;18.23;;;14.60;99.90;;;;;;5075783;28;20507;-64
2023/09/03 06:00:01;;;;;;;30.42;17.52;;;14.70;99.90;;;;;;5084027;28;20093;-64
2023/09/03 06:02:27;;;;;;;;;;;14.70;99.90;;;;;;5073691;28;20418;-65
2023/09/03 06:04:52;;;;;;;30.35;16.38;;;15.00;99.90;;;;;;5070455;28;19920;-64
2023/09/03 06:07:18;;;;;;;27.33;17.63;;;15.40;99.90;;;;;;5073044;28;20109;-64
2023/09/03 06:09:45;;;;;;;;;;;15.80;99.90;;;;;;5078313;28;20036;-63
2023/09/03 06:12:10;;;;;;;25.70;15.48;;;15.90;99.90;;;;;;5080917;28;19947;-64
2023/09/03 06:14:36;;;;;;;;;;;16.10;99.90;;;;;;5081724;28;20064;-65
2023/09/03 06:17:04;;;;;;;29.73;17.75;;;16.40;99.90;;;;;;5080423;28;20038;-66
2023/09/03 06:19:30;;;;;;;30.08;18.75;;;16.50;99.90;;;;;;5079674;28;20047;-63
2023/09/03 06:21:56;;;;;;;30.70;19.38;;;16.30;99.90;;;;;;5064413;28;20040;-64
2023/09/03 06:24:21;;;;;;;;;;;16.00;99.90;;;;;;5066978;28;20040;-63
2023/09/03 06:26:47;;;;;;;29.27;19.67;;;15.80;99.90;;;;;;5068661;28;19928;-62
2023/09/03 06:29:12;;;;;;;37.42;21.83;;;15.70;99.90;;;;;;5072798;28;20036;-64
2023/09/03 06:31:38;;;;;;;;;;;15.60;99.90;;;;;;5080963;28;20146;-62
2023/09/03 06:34:04;;;;;;;29.05;18.60;;;15.50;99.90;;;;;;5076087;28;20007;-62
2023/09/03 06:36:29;;;;;;;34.88;20.63;;;15.40;99.90;;;;;;5080318;28;20043;-62
2023/09/03 06:38:55;;;;;;;;;;;15.40;99.90;;;;;;5068168;28;20588;-62
2023/09/03 06:41:21;;;;;;;29.52;19.20;;;15.40;99.90;;;;;;5068450;28;20002;-63
2023/09/03 06:43:47;;;;;;;31.17;19.60;;;15.40;99.90;;;;;;5079401;28;20046;-63
2023/09/03 06:46:12;;;;;;;;;;;15.30;99.90;;;;;;5069416;28;20040;-64
2023/09/03 06:48:38;;;;;;;30.80;19.73;;;15.40;99.90;;;;;;5068916;28;19996;-63
2023/09/03 06:51:04;;;;;;;;;;;15.40;99.90;;;;;;5071511;28;20085;-63
2023/09/03 06:53:30;;;;;;;28.73;17.48;;;15.40;99.90;;;;;;5067832;28;20494;-62
2023/09/03 06:55:58;;;;;;;;;;;15.50;99.90;;;;;;5070278;28;20037;-62
2023/09/03 06:58:24;;;;;;;31.88;19.23;;;15.50;99.90;;;;;;5079105;28;19920;-62
2023/09/03 07:00:50;;;;;;;;;;;15.60;99.90;;;;;;5069569;28;20029;-63
2023/09/03 07:03:16;;;;;;;27.85;19.83;;;15.60;99.90;;;;;;5077716;28;20288;-63
2023/09/03 07:05:41;;;;;;;;;;;15.70;99.90;;;;;;5063132;28;20500;-62
2023/09/03 07:08:07;;;;;;;36.45;22.42;;;15.60;99.90;;;;;;5078024;28;20347;-63
2023/09/03 07:10:36;;;;;;;;;;;15.70;99.90;;;;;;5071840;28;20404;-62
2023/09/03 07:13:03;;;;;;;31.08;21.48;;;15.60;99.90;;;;;;5075018;28;19965;-63
2023/09/03 07:15:28;;;;;;;31.10;22.25;;;15.70;99.90;;;;;;5072361;28;20048;-62
2023/09/03 07:17:54;;;;;;;;;;;15.80;99.90;;;;;;5083785;28;20058;-62
2023/09/03 07:20:20;;;;;;;37.15;24.60;;;15.80;99.90;;;;;;5071992;28;20289;-62
2023/09/03 07:22:45;;;;;;;;;;;15.70;99.90;;;;;;5071390;28;20522;-62
2023/09/03 07:25:11;;;;;;;29.33;20.40;;;15.70;99.90;;;;;;5066946;28;19951;-62
2023/09/03 07:27:39;;;;;;;26.52;19.60;;;15.70;99.90;;;;;;5078955;28;20036;-63
2023/09/03 07:30:08;;;;;;;34.13;19.58;;;15.80;99.90;;;;;;5086973;28;20031;-62
2023/09/03 07:32:36;;;;;;;28.38;18.42;;;15.90;99.90;;;;;;5075541;28;20043;-63
2023/09/03 07:35:06;;;;;;;33.85;20.70;;;16.00;99.90;;;;;;5082650;28;20033;-62
2023/09/03 07:37:32;;;;;;;30.77;20.00;;;16.00;99.90;;;;;;5076686;28;20090;-62
2023/09/03 07:39:58;;;;;;;31.25;20.58;;;16.00;99.90;;;;;;5077151;28;20044;-62
2023/09/03 07:42:23;;;;;;;;;;;16.00;99.90;;;;;;5082805;28;20096;-62
2023/09/03 07:44:49;;;;;;;28.52;18.23;;;16.00;99.90;;;;;;5079410;28;19919;-62
2023/09/03 07:47:15;;;;;;;;;;;16.00;99.90;;;;;;5083905;28;20043;-63
2023/09/03 07:49:42;;;;;;;26.27;18.15;;;16.20;99.90;;;;;;5067596;28;19923;-63
2023/09/03 07:52:08;;;;;;;27.35;17.75;;;16.10;99.90;;;;;;5074959;28;20043;-63
2023/09/03 07:54:33;;;;;;;21.10;15.70;;;16.20;99.90;;;;;;5076169;28;20044;-61
2023/09/03 07:56:59;;;;;;;;;;;16.20;99.90;;;;;;5085943;28;20069;-61
2023/09/03 07:59:24;;;;;;;21.08;15.30;;;16.20;99.90;;;;;;5093138;28;19919;-61
2023/09/03 08:01:50;;;;;;;19.10;13.68;;;16.30;99.90;;;;;;5075077;28;20036;-62
2023/09/03 08:04:15;;;;;;;20.55;11.93;;;16.40;99.90;;;;;;5073712;28;20032;-62
2023/09/03 08:06:41;;;;;;;19.63;13.02;;;16.50;99.90;;;;;;5076851;28;20064;-62
2023/09/03 08:09:06;;;;;;;;;;;16.50;99.90;;;;;;5086592;28;20036;-61
2023/09/03 08:11:32;;;;;;;17.27;12.00;;;16.50;99.90;;;;;;5086367;28;19927;-62
2023/09/03 08:13:59;;;;;;;22.83;13.18;;;16.50;99.90;;;;;;5079837;28;20040;-62
2023/09/03 08:16:25;;;;;;;15.38;10.25;;;16.40;99.90;;;;;;5089023;28;20481;-62
2023/09/03 08:18:51;;;;;;;;;;;17.20;99.90;;;;;;5076080;28;20040;-61
2023/09/03 08:21:16;;;;;;;18.95;9.55;;;17.90;99.90;;;;;;5072192;28;19984;-63
2023/09/03 08:23:42;;;;;;;15.85;10.65;;;18.80;99.90;;;;;;5063851;28;20476;-63
2023/09/03 08:26:08;;;;;;;;;;;18.80;99.90;;;;;;5076104;28;20036;-61
2023/09/03 08:28:33;;;;;;;14.25;7.75;;;19.10;99.90;;;;;;5084601;28;19927;-62
2023/09/03 08:30:59;;;;;;;14.35;9.20;;;19.60;99.90;;;;;;5073701;28;20476;-62
2023/09/03 08:33:25;;;;;;;15.85;9.38;;;20.00;99.90;;;;;;5080407;28;20054;-61
2023/09/03 08:35:51;;;;;;;12.65;9.25;;;20.30;99.90;;;;;;5085073;28;20428;-61
2023/09/03 08:38:17;;;;;;;12.50;7.97;;;19.80;99.90;;;;;;5080112;28;20488;-63
2023/09/03 08:40:43;;;;;;;;;;;19.30;99.90;;;;;;5076761;28;20546;-62
2023/09/03 08:43:12;;;;;;;13.30;9.45;;;18.80;99.90;;;;;;5071774;28;19920;-62
2023/09/03 08:46:04;;;;;;;15.13;8.68;;;18.40;99.90;;;;;;5067362;28;20046;-61
2023/09/03 08:48:30;;;;;;;11.35;8.75;;;18.10;99.90;;;;;;5065453;28;20789;-62
2023/09/03 08:50:56;;;;;;;;;;;17.80;99.90;;;;;;5077258;28;20040;-62
2023/09/03 08:53:23;;;;;;;13.10;8.10;;;17.70;99.90;;;;;;5071686;28;19927;-62
2023/09/03 08:55:49;;;;;;;10.77;7.40;;;17.60;99.90;;;;;;5074454;28;20036;-61
2023/09/03 08:58:15;;;;;;;;;;;17.60;99.90;;;;;;5073426;28;20106;-63
2023/09/03 09:00:42;;;;;;;12.63;7.43;;;17.60;99.90;;;;;;5072006;28;19912;-60
2023/09/03 09:03:11;;;;;;;11.45;7.80;;;17.60;99.90;;;;;;5076654;28;20040;-62
2023/09/03 09:05:39;;;;;;;15.52;8.73;;;17.60;99.90;;;;;;5085127;28;20055;-60
2023/09/03 09:08:05;;;;;;;13.25;7.97;;;17.50;99.90;;;;;;5081629;28;20066;-62
2023/09/03 09:10:33;;;;;;;17.55;7.93;;;17.40;99.90;;;;;;5080238;28;20119;-62
2023/09/03 09:13:07;;;;;;;13.13;6.50;;;17.50;99.90;;;;;;5084728;28;20040;-62
2023/09/03 09:15:36;;;;;;;11.60;5.93;;;17.60;99.90;;;;;;5086988;28;20028;-62
2023/09/03 09:18:08;;;;;;;8.38;6.07;;;17.60;99.90;;;;;;5081110;28;20131;-61
2023/09/03 09:20:37;;;;;;;9.55;5.68;;;17.70;99.90;;;;;;5079207;28;20036;-63
2023/09/03 09:23:03;;;;;;;7.80;5.85;;;18.00;99.90;;;;;;5082238;28;20047;-62
2023/09/03 09:25:29;;;;;;;;;;;17.80;99.90;;;;;;5079950;28;20132;-61
2023/09/03 09:27:56;;;;;;;10.30;5.63;;;17.90;99.90;;;;;;5081972;28;20361;-62
2023/09/03 09:30:26;;;;;;;8.48;5.30;;;18.00;99.90;;;;;;5079682;28;20388;-62
2023/09/03 09:33:03;;;;;;;8.55;5.05;;;18.00;99.90;;;;;;5080539;28;20043;-61
2023/09/03 09:35:28;;;;;;;9.00;4.95;;;18.00;99.90;;;;;;5083907;28;20039;-62
2023/09/03 09:37:54;;;;;;;;;;;18.20;99.90;;;;;;5084955;28;20036;-62
2023/09/03 09:40:27;;;;;;;6.20;4.28;;;18.40;99.90;;;;;;5085139;28;19920;-61
2023/09/03 09:42:58;;;;;;;7.50;4.85;;;18.60;99.90;;;;;;5079723;28;20036;-62
2023/09/03 09:45:24;;;;;;;7.80;4.88;;;18.70;99.90;;;;;;5084937;28;20039;-61
2023/09/03 09:48:06;;;;;;;;;;;18.90;99.90;;;;;;5079577;28;20047;-61
2023/09/03 09:50:36;;;;;;;7.80;4.50;;;18.80;99.90;;;;;;5078325;28;19923;-61
2023/09/03 09:53:03;;;;;;;6.97;4.78;;;18.80;99.90;;;;;;5076240;28;20036;-62
2023/09/03 09:55:31;;;;;;;6.97;4.03;;;18.60;99.90;;;;;;5067664;28;20059;-62
2023/09/03 09:57:57;;;;;;;7.55;4.43;;;18.60;99.90;;;;;;5080748;28;20515;-62
2023/09/03 10:00:32;;;;;;;;;;;18.70;99.90;;;;;;5082331;28;20076;-61
2023/09/03 10:02:58;;;;;;;6.15;3.75;;;18.90;99.90;;;;;;5069523;28;19954;-61
2023/09/03 10:05:23;;;;;;;;;;;19.00;99.90;;;;;;5071527;28;20159;-62
2023/09/03 10:07:49;;;;;;;6.57;4.00;;;19.10;99.90;;;;;;5080188;28;19927;-61
2023/09/03 10:10:16;;;;;;;5.22;3.40;;;19.20;99.90;;;;;;5087028;28;20035;-62
2023/09/03 10:12:41;;;;;;;4.13;3.03;;;19.10;99.90;;;;;;5081889;28;20040;-62
2023/09/03 10:15:07;;;;;;;;;;;19.20;99.90;;;;;;5089402;28;20533;-62
2023/09/03 10:17:35;;;;;;;4.78;3.13;;;19.20;99.90;;;;;;5069506;28;19923;-61
2023/09/03 10:20:04;;;;;;;5.43;2.80;;;19.20;99.90;;;;;;5072620;28;20086;-62
2023/09/03 10:22:31;;;;;;;6.15;3.10;;;19.00;99.90;;;;;;5076043;28;20995;-62
2023/09/03 10:25:06;;;;;;;6.55;3.08;;;18.90;99.90;;;;;;5075221;28;20040;-62
2023/09/03 10:27:39;;;;;;;4.95;2.75;;;18.90;99.90;;;;;;5076605;28;20039;-62
2023/09/03 10:30:09;;;;;;;4.95;2.60;;;18.90;99.90;;;;;;5082391;28;20044;-62
2023/09/03 10:32:36;;;;;;;4.43;3.15;;;19.10;99.90;;;;;;5080872;28;20028;-63
2023/09/03 10:35:12;;;;;;;3.58;3.10;;;19.20;99.90;;;;;;5064609;28;20123;-62
2023/09/03 10:37:39;;;;;;;4.07;2.60;;;19.10;99.90;;;;;;5066931;28;20048;-62
2023/09/03 10:40:22;;;;;;;3.80;2.60;;;19.20;99.90;;;;;;5073815;28;20080;-62
2023/09/03 10:42:49;;;;;;;5.40;2.80;;;19.40;99.90;;;;;;5079544;28;20032;-62
2023/09/03 10:45:18;;;;;;;5.70;3.10;;;19.50;99.90;;;;;;5081065;28;20037;-63
2023/09/03 10:48:03;;;;;;;6.13;2.83;;;19.50;99.90;;;;;;5066551;28;20525;-61
2023/09/03 10:50:55;;;;;;;5.43;3.17;;;19.60;99.90;;;;;;5052883;28;20039;-62
2023/09/03 10:53:40;;;;;;;6.95;4.45;;;19.60;99.90;;;;;;5069553;28;20062;-63
2023/09/03 10:56:08;;;;;;;3.70;2.95;;;19.70;99.90;;;;;;5074675;28;20044;-63
2023/09/03 10:58:33;;;;;;;4.80;3.17;;;19.50;99.90;;;;;;5075945;28;20048;-62
2023/09/03 11:01:18;;;;;;;;;;;19.60;99.90;;;;;;5076270;28;20569;-62
2023/09/03 11:03:46;;;;;;;5.97;3.88;;;19.60;99.90;;;;;;5073564;28;19919;-62
2023/09/03 11:06:22;;;;;;;7.00;2.90;;;19.80;99.90;;;;;;5075399;28;20622;-61
2023/09/03 11:09:10;;;;;;;4.63;3.08;;;19.90;99.90;;;;;;5082072;28;20466;-63
2023/09/03 11:11:38;;;;;;;7.22;3.65;;;20.00;99.90;;;;;;5078085;28;20055;-62
2023/09/03 11:14:07;;;;;;;4.20;3.40;;;19.80;99.90;;;;;;5076555;28;20036;-62
2023/09/03 11:16:36;;;;;;;5.63;3.00;;;19.80;99.90;;;;;;5066406;28;20044;-62
2023/09/03 11:19:04;;;;;;;5.47;2.80;;;19.90;99.90;;;;;;5074647;28;20044;-62
2023/09/03 11:21:30;;;;;;;3.95;2.67;;;19.90;99.90;;;;;;5080781;28;20048;-62
2023/09/03 11:24:16;;;;;;;6.53;3.83;;;19.90;99.90;;;;;;5083362;28;20104;-62
2023/09/03 11:26:43;;;;;;;4.97;3.13;;;19.90;99.90;;;;;;5071032;28;20515;-62
2023/09/03 11:29:24;;;;;;;6.53;3.40;;;19.90;99.90;;;;;;5082210;28;20071;-63
2023/09/03 11:31:51;;;;;;;6.80;3.70;;;19.80;99.90;;;;;;5066758;28;20067;-63
2023/09/03 11:34:24;;;;;;;3.45;2.55;;;19.70;99.90;;;;;;5075321;28;20035;-62
2023/09/03 11:36:50;;;;;;;3.72;2.88;;;19.80;99.90;;;;;;5077606;28;20040;-63
2023/09/03 11:39:16;;;;;;;5.38;3.15;;;19.90;99.90;;;;;;5080796;28;20740;-62
2023/09/03 11:41:46;;;;;;;5.45;3.15;;;19.90;99.90;;;;;;5068838;28;20376;-63
2023/09/03 11:44:23;;;;;;;19.02;4.00;;;19.90;99.90;;;;;;5082659;28;20035;-62
2023/09/03 11:46:59;;;;;;;4.65;3.50;;;19.90;99.90;;;;;;5075386;28;20048;-62
2023/09/03 11:49:25;;;;;;;8.25;3.60;;;20.10;99.90;;;;;;5077573;28;20051;-62
2023/09/03 11:51:52;;;;;;;5.60;3.25;;;20.00;99.90;;;;;;5073986;28;20028;-62
2023/09/03 11:54:25;;;;;;;4.50;3.30;;;20.00;99.90;;;;;;5072443;28;20054;-63
2023/09/03 11:56:58;;;;;;;8.07;3.80;;;20.00;99.90;;;;;;5075958;28;20047;-63
2023/09/03 11:59:24;;;;;;;4.28;3.35;;;19.90;99.90;;;;;;5079735;28;20048;-63
2023/09/03 12:01:51;;;;;;;4.22;2.95;;;19.80;99.90;;;;;;5066150;28;20412;-62
2023/09/03 12:04:17;;;;;;;6.05;3.20;;;19.90;99.90;;;;;;5075743;28;20031;-62
2023/09/03 12:06:43;;;;;;;7.50;3.40;;;20.10;99.90;;;;;;5070247;28;20040;-63
2023/09/03 12:09:09;;;;;;;9.07;4.75;;;20.10;99.90;;;;;;5070024;28;20152;-63
2023/09/03 12:11:34;;;;;;;5.45;3.53;;;20.10;99.90;;;;;;5063823;28;20174;-62
2023/09/03 12:14:00;;;;;;;5.45;2.80;;;20.10;99.90;;;;;;5073463;28;20086;-62
2023/09/03 12:16:27;;;;;;;5.78;2.85;;;20.10;99.90;;;;;;5085640;28;20093;-64
2023/09/03 12:19:01;;;;;;;3.97;2.53;;;20.10;99.90;;;;;;5078065;28;20075;-62
2023/09/03 12:21:34;;;;;;;4.28;2.50;;;20.00;99.90;;;;;;5089075;28;20051;-62
2023/09/03 12:24:05;;;;;;;3.38;2.20;;;19.80;99.90;;;;;;5075688;28;20414;-62
2023/09/03 12:26:35;;;;;;;4.32;2.17;;;19.70;99.90;;;;;;5081243;28;20056;-61
2023/09/03 12:29:17;;;;;;;3.50;2.15;;;19.80;99.90;;;;;;5086101;28;20040;-62
2023/09/03 12:31:44;;;;;;;3.78;1.65;;;19.80;99.90;;;;;;5069509;28;20123;-63
2023/09/03 12:34:10;;;;;;;2.70;1.90;;;19.80;99.90;;;;;;5073852;28;20927;-62
2023/09/03 12:36:57;;;;;;;2.85;1.80;;;19.70;99.90;;;;;;5078028;28;20147;-63
2023/09/03 12:39:31;;;;;;;4.40;1.83;;;19.70;99.60;;;;;;5079833;28;20050;-64
2023/09/03 12:41:57;;;;;;;3.33;2.10;;;19.80;99.90;;;;;;5085356;28;20036;-64
2023/09/03 12:44:24;;;;;;;2.50;1.60;;;19.80;99.90;;;;;;5084597;28;20047;-63
2023/09/03 12:46:49;;;;;;;2.95;2.13;;;19.90;99.40;;;;;;5073499;28;20074;-64
2023/09/03 12:49:15;;;;;;;3.05;1.65;;;19.90;99.90;;;;;;5083573;28;20060;-64
2023/09/03 12:51:41;;;;;;;2.17;1.80;;;19.80;99.80;;;;;;5081466;28;20033;-63
2023/09/03 12:54:07;;;;;;;2.45;1.90;;;19.90;99.20;;;;;;5081422;28;20726;-63
2023/09/03 12:56:33;;;;;;;4.53;2.55;;;19.90;99.90;;;;;;5085142;28;20076;-64
2023/09/03 12:59:06;;;;;;;4.80;2.15;;;19.90;99.90;;;;;;5085853;28;20095;-63